sensor_id;sensor_type;location;lat;lon;timestamp;pressure;altitude;pressure_sealevel;temperature;humidity
70815;BME280;58428;49.478;10.986;2022-09-09T00:01:35;98096.28;;;15.14;76.86
70815;BME280;58428;49.478;10.986;2022-09-09T00:04:26;98094.16;;;15.07;78.12
70815;BME280;58428;49.478;10.986;2022-09-09T00:07:00;98093.81;;;15.09;76.91
70815;BME280;58428;49.478;10.986;2022-09-09T00:09:32;98091.00;;;15.06;77.63
70815;BME280;58428;49.478;10.986;2022-09-09T00:15:38;98089.75;;;15.00;77.88
70815;BME280;58428;49.478;10.986;2022-09-09T00:21:14;98084.88;;;14.90;78.56
70815;BME280;58428;49.478;10.986;2022-09-09T00:23:48;98078.59;;;14.86;78.57
70815;BME280;58428;49.478;10.986;2022-09-09T00:31:28;98084.25;;;14.96;78.99
70815;BME280;58428;49.478;10.986;2022-09-09T00:33:59;98080.28;;;14.94;79.00
70815;BME280;58428;49.478;10.986;2022-09-09T00:36:28;98085.38;;;14.95;78.87
70815;BME280;58428;49.478;10.986;2022-09-09T00:39:01;98078.91;;;15.03;78.13
70815;BME280;58428;49.478;10.986;2022-09-09T00:42:00;98075.53;;;15.09;78.10
70815;BME280;58428;49.478;10.986;2022-09-09T00:44:35;98074.16;;;15.19;77.26
70815;BME280;58428;49.478;10.986;2022-09-09T00:57:52;98076.00;;;14.93;78.34
70815;BME280;58428;49.478;10.986;2022-09-09T01:05:46;98078.91;;;14.81;79.58
70815;BME280;58428;49.478;10.986;2022-09-09T01:08:32;98084.19;;;14.74;78.65
70815;BME280;58428;49.478;10.986;2022-09-09T01:11:00;98084.63;;;14.76;79.01
70815;BME280;58428;49.478;10.986;2022-09-09T01:13:33;98090.31;;;14.68;79.51
70815;BME280;58428;49.478;10.986;2022-09-09T01:16:04;98088.72;;;14.67;79.96
70815;BME280;58428;49.478;10.986;2022-09-09T01:18:33;98089.03;;;14.62;80.16
70815;BME280;58428;49.478;10.986;2022-09-09T01:21:14;98095.31;;;14.66;79.18
70815;BME280;58428;49.478;10.986;2022-09-09T01:26:38;98097.53;;;14.60;79.31
70815;BME280;58428;49.478;10.986;2022-09-09T01:29:22;98096.38;;;14.61;79.47
70815;BME280;58428;49.478;10.986;2022-09-09T01:35:00;98094.31;;;14.55;79.52
70815;BME280;58428;49.478;10.986;2022-09-09T01:37:26;98094.31;;;14.55;79.79
70815;BME280;58428;49.478;10.986;2022-09-09T01:39:51;98093.09;;;14.52;80.57
70815;BME280;58428;49.478;10.986;2022-09-09T01:42:17;98084.84;;;14.49;80.39
70815;BME280;58428;49.478;10.986;2022-09-09T01:44:42;98082.66;;;14.54;80.31
70815;BME280;58428;49.478;10.986;2022-09-09T01:47:08;98088.16;;;14.58;80.41
70815;BME280;58428;49.478;10.986;2022-09-09T01:49:33;98091.81;;;14.65;80.05
70815;BME280;58428;49.478;10.986;2022-09-09T01:51:59;98090.31;;;14.68;79.87
70815;BME280;58428;49.478;10.986;2022-09-09T01:54:31;98082.13;;;14.68;79.58
70815;BME280;58428;49.478;10.986;2022-09-09T01:57:15;98084.50;;;14.69;79.90
70815;BME280;58428;49.478;10.986;2022-09-09T02:03:08;98086.69;;;14.82;78.68
70815;BME280;58428;49.478;10.986;2022-09-09T02:06:00;98081.38;;;14.89;78.08
70815;BME280;58428;49.478;10.986;2022-09-09T02:08:42;98076.22;;;14.84;78.48
70815;BME280;58428;49.478;10.986;2022-09-09T02:11:25;98077.75;;;14.82;79.04
70815;BME280;58428;49.478;10.986;2022-09-09T02:14:00;98079.44;;;14.90;77.86
70815;BME280;58428;49.478;10.986;2022-09-09T02:16:44;98074.50;;;14.95;77.73
70815;BME280;58428;49.478;10.986;2022-09-09T02:19:26;98079.44;;;14.90;77.75
70815;BME280;58428;49.478;10.986;2022-09-09T02:21:55;98080.47;;;14.82;78.64
70815;BME280;58428;49.478;10.986;2022-09-09T02:24:21;98074.09;;;14.74;78.73
70815;BME280;58428;49.478;10.986;2022-09-09T02:26:51;98075.94;;;14.71;78.36
70815;BME280;58428;49.478;10.986;2022-09-09T02:29:27;98073.31;;;14.74;78.57
70815;BME280;58428;49.478;10.986;2022-09-09T02:32:01;98066.84;;;14.82;77.86
70815;BME280;58428;49.478;10.986;2022-09-09T02:34:31;98069.28;;;14.87;77.95
70815;BME280;58428;49.478;10.986;2022-09-09T02:36:59;98069.28;;;14.87;77.56
70815;BME280;58428;49.478;10.986;2022-09-09T02:39:25;98069.78;;;14.92;77.18
70815;BME280;58428;49.478;10.986;2022-09-09T02:41:53;98076.50;;;14.98;77.61
70815;BME280;58428;49.478;10.986;2022-09-09T02:44:19;98069.53;;;15.01;76.76
70815;BME280;58428;49.478;10.986;2022-09-09T02:49:43;98080.09;;;14.83;78.58
70815;BME280;58428;49.478;10.986;2022-09-09T02:52:18;98080.81;;;14.80;78.31
70815;BME280;58428;49.478;10.986;2022-09-09T02:54:47;98081.91;;;14.76;78.46
70815;BME280;58428;49.478;10.986;2022-09-09T02:57:24;98072.66;;;14.80;78.54
70815;BME280;58428;49.478;10.986;2022-09-09T02:59:51;98057.97;;;14.85;77.86
70815;BME280;58428;49.478;10.986;2022-09-09T03:02:20;98073.44;;;14.81;77.95
70815;BME280;58428;49.478;10.986;2022-09-09T03:04:45;98080.53;;;14.67;79.22
70815;BME280;58428;49.478;10.986;2022-09-09T03:07:16;98081.56;;;14.59;79.44
70815;BME280;58428;49.478;10.986;2022-09-09T03:09:42;98082.34;;;14.59;79.48
70815;BME280;58428;49.478;10.986;2022-09-09T03:12:07;98077.31;;;14.61;79.22
70815;BME280;58428;49.478;10.986;2022-09-09T03:14:32;98079.41;;;14.68;79.29
70815;BME280;58428;49.478;10.986;2022-09-09T03:16:59;98072.31;;;14.63;79.61
70815;BME280;58428;49.478;10.986;2022-09-09T03:19:26;98075.75;;;14.60;79.61
70815;BME280;58428;49.478;10.986;2022-09-09T03:21:53;98075.25;;;14.55;79.15
70815;BME280;58428;49.478;10.986;2022-09-09T03:24:18;98076.03;;;14.55;79.76
70815;BME280;58428;49.478;10.986;2022-09-09T03:26:43;98066.31;;;14.54;79.01
70815;BME280;58428;49.478;10.986;2022-09-09T03:29:12;98061.22;;;14.53;79.83
70815;BME280;58428;49.478;10.986;2022-09-09T03:31:38;98067.88;;;14.55;80.07
70815;BME280;58428;49.478;10.986;2022-09-09T03:34:04;98069.72;;;14.51;80.02
70815;BME280;58428;49.478;10.986;2022-09-09T03:36:29;98070.91;;;14.50;80.13
70815;BME280;58428;49.478;10.986;2022-09-09T03:38:55;98066.16;;;14.47;79.87
70815;BME280;58428;49.478;10.986;2022-09-09T03:41:24;98064.25;;;14.48;80.27
70815;BME280;58428;49.478;10.986;2022-09-09T03:43:51;98066.88;;;14.44;79.73
70815;BME280;58428;49.478;10.986;2022-09-09T03:46:21;98074.28;;;14.44;79.77
70815;BME280;58428;49.478;10.986;2022-09-09T03:48:48;98071.56;;;14.44;79.95
70815;BME280;58428;49.478;10.986;2022-09-09T03:51:13;98073.13;;;14.45;79.53
70815;BME280;58428;49.478;10.986;2022-09-09T03:53:39;98066.81;;;14.41;79.93
70815;BME280;58428;49.478;10.986;2022-09-09T03:56:05;98067.16;;;14.39;79.56
70815;BME280;58428;49.478;10.986;2022-09-09T03:58:32;98071.81;;;14.39;80.52
70815;BME280;58428;49.478;10.986;2022-09-09T04:01:01;98061.00;;;14.42;80.34
70815;BME280;58428;49.478;10.986;2022-09-09T04:03:28;98063.75;;;14.42;80.65
70815;BME280;58428;49.478;10.986;2022-09-09T04:05:54;98060.28;;;14.45;80.34
70815;BME280;58428;49.478;10.986;2022-09-09T04:08:21;98063.00;;;14.45;80.33
70815;BME280;58428;49.478;10.986;2022-09-09T04:10:48;98060.78;;;14.51;80.41
70815;BME280;58428;49.478;10.986;2022-09-09T04:13:15;98066.81;;;14.60;79.53
70815;BME280;58428;49.478;10.986;2022-09-09T04:15:43;98062.50;;;14.59;79.73
70815;BME280;58428;49.478;10.986;2022-09-09T04:18:10;98053.97;;;14.41;80.20
70815;BME280;58428;49.478;10.986;2022-09-09T04:20:37;98058.28;;;14.42;79.97
70815;BME280;58428;49.478;10.986;2022-09-09T04:23:03;98066.38;;;14.39;80.45
70815;BME280;58428;49.478;10.986;2022-09-09T04:25:29;98073.34;;;14.36;80.06
70815;BME280;58428;49.478;10.986;2022-09-09T04:27:55;98074.81;;;14.34;80.45
70815;BME280;58428;49.478;10.986;2022-09-09T04:30:21;98071.66;;;14.32;80.55
70815;BME280;58428;49.478;10.986;2022-09-09T04:32:49;98061.09;;;14.27;80.52
70815;BME280;58428;49.478;10.986;2022-09-09T04:35:14;98064.59;;;14.28;80.50
70815;BME280;58428;49.478;10.986;2022-09-09T04:37:40;98063.28;;;14.22;80.44
70815;BME280;58428;49.478;10.986;2022-09-09T04:40:06;98064.81;;;14.19;80.80
70815;BME280;58428;49.478;10.986;2022-09-09T04:42:36;98059.44;;;14.23;80.52
70815;BME280;58428;49.478;10.986;2022-09-09T04:45:02;98064.47;;;14.21;80.97
70815;BME280;58428;49.478;10.986;2022-09-09T04:47:30;98055.13;;;14.22;81.00
70815;BME280;58428;49.478;10.986;2022-09-09T04:49:56;98061.66;;;14.17;81.25
70815;BME280;58428;49.478;10.986;2022-09-09T04:52:22;98066.75;;;14.19;80.89
70815;BME280;58428;49.478;10.986;2022-09-09T04:54:48;98067.53;;;14.19;81.44
70815;BME280;58428;49.478;10.986;2022-09-09T04:57:14;98073.41;;;14.21;81.03
70815;BME280;58428;49.478;10.986;2022-09-09T04:59:39;98082.00;;;14.23;81.26
70815;BME280;58428;49.478;10.986;2022-09-09T05:02:07;98082.78;;;14.24;81.01
70815;BME280;58428;49.478;10.986;2022-09-09T05:04:33;98085.28;;;14.32;81.00
70815;BME280;58428;49.478;10.986;2022-09-09T05:06:58;98086.56;;;14.38;81.14
70815;BME280;58428;49.478;10.986;2022-09-09T05:09:24;98085.78;;;14.37;80.47
70815;BME280;58428;49.478;10.986;2022-09-09T05:11:49;98092.66;;;14.32;81.07
70815;BME280;58428;49.478;10.986;2022-09-09T05:14:15;98102.41;;;14.33;80.45
70815;BME280;58428;49.478;10.986;2022-09-09T05:16:41;98102.41;;;14.33;80.58
70815;BME280;58428;49.478;10.986;2022-09-09T05:19:07;98111.88;;;14.38;81.25
70815;BME280;58428;49.478;10.986;2022-09-09T05:21:34;98103.06;;;14.45;80.82
70815;BME280;58428;49.478;10.986;2022-09-09T05:23:59;98105.13;;;14.51;80.40
70815;BME280;58428;49.478;10.986;2022-09-09T05:26:26;98100.97;;;14.57;79.77
70815;BME280;58428;49.478;10.986;2022-09-09T05:28:51;98109.88;;;14.54;80.28
70815;BME280;58428;49.478;10.986;2022-09-09T05:31:18;98103.84;;;14.45;79.83
70815;BME280;58428;49.478;10.986;2022-09-09T05:33:47;98109.72;;;14.47;79.88
70815;BME280;58428;49.478;10.986;2022-09-09T05:36:19;98103.69;;;14.57;79.77
70815;BME280;58428;49.478;10.986;2022-09-09T05:38:46;98110.00;;;14.61;80.13
70815;BME280;58428;49.478;10.986;2022-09-09T05:41:13;98116.69;;;14.64;80.05
70815;BME280;58428;49.478;10.986;2022-09-09T05:43:43;98115.59;;;14.68;80.15
70815;BME280;58428;49.478;10.986;2022-09-09T05:46:21;98112.22;;;14.74;79.65
70815;BME280;58428;49.478;10.986;2022-09-09T05:48:50;98115.31;;;14.73;79.12
70815;BME280;58428;49.478;10.986;2022-09-09T05:51:25;98120.53;;;14.81;78.76
70815;BME280;58428;49.478;10.986;2022-09-09T05:53:56;98119.59;;;14.74;78.59
70815;BME280;58428;49.478;10.986;2022-09-09T05:56:26;98120.69;;;14.70;78.64
70815;BME280;58428;49.478;10.986;2022-09-09T05:58:54;98117.22;;;14.72;78.99
70815;BME280;58428;49.478;10.986;2022-09-09T06:01:25;98115.38;;;14.76;78.55
70815;BME280;58428;49.478;10.986;2022-09-09T06:03:52;98104.84;;;14.75;78.46
70815;BME280;58428;49.478;10.986;2022-09-09T06:06:21;98102.47;;;14.73;78.83
70815;BME280;58428;49.478;10.986;2022-09-09T06:08:47;98107.44;;;14.68;78.78
70815;BME280;58428;49.478;10.986;2022-09-09T06:11:16;98109.88;;;14.73;78.86
70815;BME280;58428;49.478;10.986;2022-09-09T06:13:43;98112.38;;;14.81;78.45
70815;BME280;58428;49.478;10.986;2022-09-09T06:16:09;98112.78;;;14.83;78.07
70815;BME280;58428;49.478;10.986;2022-09-09T06:18:36;98107.19;;;14.95;77.91
70815;BME280;58428;49.478;10.986;2022-09-09T06:21:03;98104.81;;;15.12;77.40
70815;BME280;58428;49.478;10.986;2022-09-09T06:23:30;98105.84;;;15.27;77.56
70815;BME280;58428;49.478;10.986;2022-09-09T06:26:26;98113.91;;;15.42;76.72
70815;BME280;58428;49.478;10.986;2022-09-09T06:28:54;98103.63;;;15.54;75.95
70815;BME280;58428;49.478;10.986;2022-09-09T06:31:24;98103.41;;;15.66;75.28
70815;BME280;58428;49.478;10.986;2022-09-09T06:33:51;98097.75;;;15.78;75.29
70815;BME280;58428;49.478;10.986;2022-09-09T06:36:22;98104.19;;;15.92;74.97
70815;BME280;58428;49.478;10.986;2022-09-09T06:38:48;98103.28;;;16.07;74.30
70815;BME280;58428;49.478;10.986;2022-09-09T06:41:15;98108.53;;;16.19;73.44
70815;BME280;58428;49.478;10.986;2022-09-09T06:43:41;98116.03;;;16.25;73.53
70815;BME280;58428;49.478;10.986;2022-09-09T06:46:08;98117.19;;;16.24;72.67
70815;BME280;58428;49.478;10.986;2022-09-09T06:48:39;98118.75;;;16.25;73.06
70815;BME280;58428;49.478;10.986;2022-09-09T06:51:10;98117.13;;;16.21;72.99
70815;BME280;58428;49.478;10.986;2022-09-09T06:53:37;98119.22;;;16.31;72.93
70815;BME280;58428;49.478;10.986;2022-09-09T06:56:25;98128.00;;;16.43;72.40
70815;BME280;58428;49.478;10.986;2022-09-09T06:58:54;98133.00;;;16.41;72.03
70815;BME280;58428;49.478;10.986;2022-09-09T07:01:23;98139.22;;;16.38;72.42
70815;BME280;58428;49.478;10.986;2022-09-09T07:03:51;98138.47;;;16.41;72.24
70815;BME280;58428;49.478;10.986;2022-09-09T07:06:38;98128.59;;;16.30;71.68
70815;BME280;58428;49.478;10.986;2022-09-09T07:09:06;98133.28;;;16.33;72.34
70815;BME280;58428;49.478;10.986;2022-09-09T07:11:43;98129.91;;;16.43;72.03
70815;BME280;58428;49.478;10.986;2022-09-09T07:14:09;98130.38;;;16.48;71.35
70815;BME280;58428;49.478;10.986;2022-09-09T07:16:40;98133.47;;;16.47;71.44
70815;BME280;58428;49.478;10.986;2022-09-09T07:19:05;98128.50;;;16.52;71.12
70815;BME280;58428;49.478;10.986;2022-09-09T07:21:32;98136.63;;;16.49;71.15
70815;BME280;58428;49.478;10.986;2022-09-09T07:23:58;98144.38;;;16.43;70.73
70815;BME280;58428;49.478;10.986;2022-09-09T07:26:25;98141.13;;;16.34;70.79
70815;BME280;58428;49.478;10.986;2022-09-09T07:28:52;98136.09;;;16.14;71.16
70815;BME280;58428;49.478;10.986;2022-09-09T07:31:25;98145.69;;;16.01;71.84
70815;BME280;58428;49.478;10.986;2022-09-09T07:33:51;98136.00;;;16.07;72.08
70815;BME280;58428;49.478;10.986;2022-09-09T07:36:18;98145.63;;;16.23;71.52
70815;BME280;58428;49.478;10.986;2022-09-09T07:38:55;98141.91;;;16.35;71.20
70815;BME280;58428;49.478;10.986;2022-09-09T07:41:25;98142.75;;;16.39;71.06
70815;BME280;58428;49.478;10.986;2022-09-09T07:43:51;98143.91;;;16.38;71.10
70815;BME280;58428;49.478;10.986;2022-09-09T07:46:21;98138.94;;;16.47;71.42
70815;BME280;58428;49.478;10.986;2022-09-09T07:48:50;98139.47;;;16.56;71.33
70815;BME280;58428;49.478;10.986;2022-09-09T07:51:32;98147.13;;;16.72;71.23
70815;BME280;58428;49.478;10.986;2022-09-09T07:54:02;98141.00;;;16.86;71.12
70815;BME280;58428;49.478;10.986;2022-09-09T07:56:29;98145.19;;;17.09;71.02
70815;BME280;58428;49.478;10.986;2022-09-09T07:58:56;98151.00;;;17.36;71.11
70815;BME280;58428;49.478;10.986;2022-09-09T08:01:26;98146.53;;;17.61;70.61
70815;BME280;58428;49.478;10.986;2022-09-09T08:03:57;98145.16;;;17.81;69.78
70815;BME280;58428;49.478;10.986;2022-09-09T08:06:36;98137.91;;;18.02;68.69
70815;BME280;58428;49.478;10.986;2022-09-09T08:09:03;98145.13;;;18.24;69.13
70815;BME280;58428;49.478;10.986;2022-09-09T08:11:31;98151.50;;;18.42;68.32
70815;BME280;58428;49.478;10.986;2022-09-09T08:13:58;98139.03;;;18.51;68.04
70815;BME280;58428;49.478;10.986;2022-09-09T08:16:28;98136.31;;;18.58;67.27
70815;BME280;58428;49.478;10.986;2022-09-09T08:18:55;98139.13;;;18.68;66.63
70815;BME280;58428;49.478;10.986;2022-09-09T08:21:23;98134.47;;;18.79;66.54
70815;BME280;58428;49.478;10.986;2022-09-09T08:23:51;98130.19;;;18.88;66.62
70815;BME280;58428;49.478;10.986;2022-09-09T08:26:20;98129.84;;;18.93;65.68
70815;BME280;58428;49.478;10.986;2022-09-09T08:28:51;98141.66;;;19.01;65.20
70815;BME280;58428;49.478;10.986;2022-09-09T08:31:25;98129.13;;;19.10;64.27
70815;BME280;58428;49.478;10.986;2022-09-09T08:33:51;98129.94;;;19.17;63.69
70815;BME280;58428;49.478;10.986;2022-09-09T08:36:19;98128.00;;;19.28;64.25
70815;BME280;58428;49.478;10.986;2022-09-09T08:38:53;98125.66;;;19.37;64.07
70815;BME280;58428;49.478;10.986;2022-09-09T08:44:38;98136.69;;;19.61;62.99
70815;BME280;58428;49.478;10.986;2022-09-09T08:52:36;98129.69;;;19.88;61.62
70815;BME280;58428;49.478;10.986;2022-09-09T08:55:20;98135.56;;;20.07;60.11
70815;BME280;58428;49.478;10.986;2022-09-09T08:57:51;98132.78;;;20.21;60.45
70815;BME280;58428;49.478;10.986;2022-09-09T09:00:18;98132.38;;;20.33;60.35
70815;BME280;58428;49.478;10.986;2022-09-09T09:03:06;98133.56;;;20.25;57.62
70815;BME280;58428;49.478;10.986;2022-09-09T09:05:41;98134.34;;;20.29;57.31
70815;BME280;58428;49.478;10.986;2022-09-09T09:08:40;98130.75;;;20.49;58.39
70815;BME280;58428;49.478;10.986;2022-09-09T09:11:09;98133.47;;;20.77;58.35
70815;BME280;58428;49.478;10.986;2022-09-09T09:16:32;98129.38;;;21.16;57.77
70815;BME280;58428;49.478;10.986;2022-09-09T09:18:59;98130.44;;;21.36;57.45
70815;BME280;58428;49.478;10.986;2022-09-09T09:24:29;98129.81;;;21.72;56.40
70815;BME280;58428;49.478;10.986;2022-09-09T09:26:52;98125.47;;;21.74;55.30
70815;BME280;58428;49.478;10.986;2022-09-09T09:29:20;98116.66;;;21.93;54.80
70815;BME280;58428;49.478;10.986;2022-09-09T09:31:55;98113.97;;;21.86;53.04
70815;BME280;58428;49.478;10.986;2022-09-09T09:34:21;98116.75;;;21.79;54.10
70815;BME280;58428;49.478;10.986;2022-09-09T09:37:00;98108.13;;;21.77;52.65
70815;BME280;58428;49.478;10.986;2022-09-09T09:39:32;98109.34;;;21.73;52.10
70815;BME280;58428;49.478;10.986;2022-09-09T09:42:13;98103.47;;;21.71;50.93
70815;BME280;58428;49.478;10.986;2022-09-09T09:44:40;98097.31;;;22.00;51.95
70815;BME280;58428;49.478;10.986;2022-09-09T09:47:15;98096.34;;;22.20;52.19
70815;BME280;58428;49.478;10.986;2022-09-09T09:49:54;98103.75;;;22.30;50.93
70815;BME280;58428;49.478;10.986;2022-09-09T09:52:26;98107.66;;;22.32;51.94
70815;BME280;58428;49.478;10.986;2022-09-09T09:54:54;98109.19;;;22.37;51.42
70815;BME280;58428;49.478;10.986;2022-09-09T09:57:26;98092.66;;;22.70;51.53
70815;BME280;58428;49.478;10.986;2022-09-09T10:00:04;98094.34;;;22.93;50.41
70815;BME280;58428;49.478;10.986;2022-09-09T10:02:39;98101.97;;;23.16;50.97
70815;BME280;58428;49.478;10.986;2022-09-09T10:05:24;98107.56;;;23.38;49.76
70815;BME280;58428;49.478;10.986;2022-09-09T10:10:57;98105.09;;;23.44;48.46
70815;BME280;58428;49.478;10.986;2022-09-09T10:16:43;98089.97;;;23.26;48.06
70815;BME280;58428;49.478;10.986;2022-09-09T10:19:16;98088.91;;;22.90;47.64
70815;BME280;58428;49.478;10.986;2022-09-09T10:30:22;98077.00;;;23.23;47.92
70815;BME280;58428;49.478;10.986;2022-09-09T10:36:21;98077.44;;;23.21;45.53
70815;BME280;58428;49.478;10.986;2022-09-09T10:38:40;98073.50;;;23.19;48.04
70815;BME280;58428;49.478;10.986;2022-09-09T10:44:25;98070.84;;;23.90;47.48
70815;BME280;58428;49.478;10.986;2022-09-09T10:50:40;98059.22;;;24.21;45.22
70815;BME280;58428;49.478;10.986;2022-09-09T10:55:20;98055.78;;;24.37;44.12
70815;BME280;58428;49.478;10.986;2022-09-09T10:57:54;98056.00;;;24.26;45.48
70815;BME280;58428;49.478;10.986;2022-09-09T11:00:55;98051.13;;;24.11;44.63
70815;BME280;58428;49.478;10.986;2022-09-09T11:03:29;98047.22;;;24.31;45.61
70815;BME280;58428;49.478;10.986;2022-09-09T11:06:00;98053.81;;;24.37;45.04
70815;BME280;58428;49.478;10.986;2022-09-09T11:08:30;98062.47;;;24.39;44.07
70815;BME280;58428;49.478;10.986;2022-09-09T11:11:11;98061.69;;;24.39;42.70
70815;BME280;58428;49.478;10.986;2022-09-09T11:16:42;98059.06;;;24.09;44.43
70815;BME280;58428;49.478;10.986;2022-09-09T11:19:38;98056.78;;;24.04;44.05
70815;BME280;58428;49.478;10.986;2022-09-09T11:30:57;98059.41;;;23.39;44.94
70815;BME280;58428;49.478;10.986;2022-09-09T11:42:16;98045.19;;;24.35;44.17
70815;BME280;58428;49.478;10.986;2022-09-09T11:44:43;98046.38;;;24.53;43.87
70815;BME280;58428;49.478;10.986;2022-09-09T11:47:26;98043.91;;;24.40;43.04
70815;BME280;58428;49.478;10.986;2022-09-09T11:52:46;98037.34;;;24.07;43.73
70815;BME280;58428;49.478;10.986;2022-09-09T11:55:25;98045.00;;;23.77;43.11
70815;BME280;58428;49.478;10.986;2022-09-09T11:57:58;98051.38;;;23.48;43.95
70815;BME280;58428;49.478;10.986;2022-09-09T12:03:45;98047.31;;;23.30;45.04
70815;BME280;58428;49.478;10.986;2022-09-09T12:06:33;98061.31;;;23.16;45.72
70815;BME280;58428;49.478;10.986;2022-09-09T12:11:40;98046.50;;;23.33;44.68
70815;BME280;58428;49.478;10.986;2022-09-09T12:14:19;98040.47;;;23.38;44.76
70815;BME280;58428;49.478;10.986;2022-09-09T12:16:46;98039.78;;;23.60;44.52
70815;BME280;58428;49.478;10.986;2022-09-09T12:24:17;98046.75;;;23.68;42.70
70815;BME280;58428;49.478;10.986;2022-09-09T12:27:07;98035.50;;;23.56;41.73
70815;BME280;58428;49.478;10.986;2022-09-09T12:29:47;98033.25;;;23.47;42.11
70815;BME280;58428;49.478;10.986;2022-09-09T12:32:18;98031.09;;;23.32;42.69
70815;BME280;58428;49.478;10.986;2022-09-09T12:34:53;98026.28;;;23.39;43.07
70815;BME280;58428;49.478;10.986;2022-09-09T12:42:45;98041.81;;;23.04;43.40
70815;BME280;58428;49.478;10.986;2022-09-09T12:45:22;98045.13;;;22.92;43.32
70815;BME280;58428;49.478;10.986;2022-09-09T12:48:09;98041.28;;;22.83;43.39
70815;BME280;58428;49.478;10.986;2022-09-09T12:50:46;98046.66;;;22.63;44.19
70815;BME280;58428;49.478;10.986;2022-09-09T12:53:35;98061.91;;;22.38;43.89
70815;BME280;58428;49.478;10.986;2022-09-09T12:56:07;98082.38;;;21.97;46.66
70815;BME280;58428;49.478;10.986;2022-09-09T12:58:38;98104.63;;;21.70;48.91
70815;BME280;58428;49.478;10.986;2022-09-09T13:01:05;98093.25;;;21.03;51.04
70815;BME280;58428;49.478;10.986;2022-09-09T13:03:33;98112.97;;;20.92;51.94
70815;BME280;58428;49.478;10.986;2022-09-09T13:08:39;98094.25;;;20.49;52.90
70815;BME280;58428;49.478;10.986;2022-09-09T13:11:17;98087.97;;;20.45;54.97
70815;BME280;58428;49.478;10.986;2022-09-09T13:13:51;98070.41;;;19.73;58.83
70815;BME280;58428;49.478;10.986;2022-09-09T13:16:31;98054.72;;;19.56;59.33
70815;BME280;58428;49.478;10.986;2022-09-09T13:18:59;98048.88;;;19.82;59.41
70815;BME280;58428;49.478;10.986;2022-09-09T13:21:37;98040.09;;;20.39;59.52
70815;BME280;58428;49.478;10.986;2022-09-09T13:24:21;98041.81;;;21.01;58.22
70815;BME280;58428;49.478;10.986;2022-09-09T13:26:56;98048.97;;;21.48;56.70
70815;BME280;58428;49.478;10.986;2022-09-09T13:29:22;98052.75;;;21.65;56.08
70815;BME280;58428;49.478;10.986;2022-09-09T13:31:50;98050.13;;;21.51;56.30
70815;BME280;58428;49.478;10.986;2022-09-09T13:34:32;98048.56;;;21.46;56.05
70815;BME280;58428;49.478;10.986;2022-09-09T13:37:00;98041.22;;;21.30;56.12
70815;BME280;58428;49.478;10.986;2022-09-09T13:39:32;98032.84;;;21.47;55.47
70815;BME280;58428;49.478;10.986;2022-09-09T13:42:02;98027.00;;;21.42;54.33
70815;BME280;58428;49.478;10.986;2022-09-09T13:44:38;98021.09;;;21.36;54.05
70815;BME280;58428;49.478;10.986;2022-09-09T13:47:21;98010.63;;;21.17;54.72
70815;BME280;58428;49.478;10.986;2022-09-09T13:49:48;98012.63;;;21.13;54.56
70815;BME280;58428;49.478;10.986;2022-09-09T13:52:18;98011.47;;;21.11;54.44
70815;BME280;58428;49.478;10.986;2022-09-09T13:54:48;98010.31;;;21.08;54.29
70815;BME280;58428;49.478;10.986;2022-09-09T13:57:23;98008.78;;;21.01;54.96
70815;BME280;58428;49.478;10.986;2022-09-09T13:59:49;98028.84;;;20.94;56.21
70815;BME280;58428;49.478;10.986;2022-09-09T14:02:16;98020.06;;;21.20;55.47
70815;BME280;58428;49.478;10.986;2022-09-09T14:04:42;98011.22;;;21.45;55.68
70815;BME280;58428;49.478;10.986;2022-09-09T14:07:11;98001.94;;;21.73;55.69
70815;BME280;58428;49.478;10.986;2022-09-09T14:09:38;98004.59;;;21.83;55.40
70815;BME280;58428;49.478;10.986;2022-09-09T14:12:04;98009.91;;;22.00;55.11
70815;BME280;58428;49.478;10.986;2022-09-09T14:14:29;98007.06;;;22.11;54.60
70815;BME280;58428;49.478;10.986;2022-09-09T14:16:56;98015.41;;;22.04;54.17
70815;BME280;58428;49.478;10.986;2022-09-09T14:19:23;98015.91;;;21.92;54.61
70815;BME280;58428;49.478;10.986;2022-09-09T14:21:48;98012.28;;;22.02;54.47
70815;BME280;58428;49.478;10.986;2022-09-09T14:24:13;98009.91;;;22.00;55.02
70815;BME280;58428;49.478;10.986;2022-09-09T14:26:41;98014.19;;;21.68;55.00
70815;BME280;58428;49.478;10.986;2022-09-09T14:29:07;98006.72;;;21.65;55.29
70815;BME280;58428;49.478;10.986;2022-09-09T14:31:32;98017.22;;;21.80;55.51
70815;BME280;58428;49.478;10.986;2022-09-09T14:33:59;98019.22;;;21.77;55.65
70815;BME280;58428;49.478;10.986;2022-09-09T14:36:25;98030.13;;;21.87;55.43
70815;BME280;58428;49.478;10.986;2022-09-09T14:38:51;98035.56;;;21.94;55.19
70815;BME280;58428;49.478;10.986;2022-09-09T14:41:18;98044.75;;;21.80;55.17
70815;BME280;58428;49.478;10.986;2022-09-09T14:43:45;98044.84;;;21.70;55.37
70815;BME280;58428;49.478;10.986;2022-09-09T14:46:13;98040.28;;;21.50;56.20
70815;BME280;58428;49.478;10.986;2022-09-09T14:48:39;98045.94;;;21.29;56.83
70815;BME280;58428;49.478;10.986;2022-09-09T14:53:35;98052.19;;;21.33;56.44
70815;BME280;58428;49.478;10.986;2022-09-09T14:56:16;98051.38;;;21.36;56.05
70815;BME280;58428;49.478;10.986;2022-09-09T14:58:42;98047.44;;;21.41;56.20
70815;BME280;58428;49.478;10.986;2022-09-09T15:01:11;98043.13;;;21.40;55.96
70815;BME280;58428;49.478;10.986;2022-09-09T15:03:41;98047.75;;;21.53;56.24
70815;BME280;58428;49.478;10.986;2022-09-09T15:06:13;98043.66;;;21.71;55.59
70815;BME280;58428;49.478;10.986;2022-09-09T15:08:41;98040.47;;;21.76;55.37
70815;BME280;58428;49.478;10.986;2022-09-09T15:11:08;98028.56;;;21.86;55.12
70815;BME280;58428;49.478;10.986;2022-09-09T15:13:34;98033.72;;;21.84;54.83
70815;BME280;58428;49.478;10.986;2022-09-09T15:16:07;98035.03;;;21.66;54.86